TimeMDT,TemperatureF,Dew PointF,Humidity,Sea Level PressureIn,VisibilityMPH,Wind Direction,Wind SpeedMPH,Gust SpeedMPH,PrecipitationIn,Events,Conditions,WindDirDegrees,DateUTC
12:53 AM,82.0,27.0,13,29.71,10.0,West,11.5,-,N/A,,Clear,270,2012-06-30 06:53:00
1:53 AM,81.0,25.0,13,29.72,10.0,West,12.7,-,N/A,,Clear,270,2012-06-30 07:53:00
2:53 AM,78.1,25.0,14,29.74,10.0,West,10.4,-,N/A,,Clear,270,2012-06-30 08:53:00
3:53 AM,73.9,25.0,16,29.75,10.0,WSW,8.1,-,N/A,,Clear,250,2012-06-30 09:53:00
5:53 AM,69.1,25.0,19,29.78,10.0,Calm,Calm,-,N/A,,Clear,0,2012-06-30 11:53:00
6:53 AM,72.0,26.1,18,29.79,10.0,NNE,3.5,-,N/A,,Clear,20,2012-06-30 12:53:00
7:53 AM,75.9,26.1,16,29.80,10.0,Calm,Calm,-,N/A,,Clear,0,2012-06-30 13:53:00
8:53 AM,86.0,26.1,11,29.79,10.0,Calm,Calm,-,N/A,,Clear,0,2012-06-30 14:53:00
9:53 AM,90.0,25.0,10,29.78,10.0,Variable,3.5,-,N/A,,Clear,0,2012-06-30 15:53:00
10:53 AM,91.9,24.1,9,29.77,10.0,East,6.9,-,N/A,,Clear,80,2012-06-30 16:53:00
11:53 AM,95.0,25.0,8,29.77,10.0,WSW,11.5,18.4,N/A,,Clear,240,2012-06-30 17:53:00
12:53 PM,97.0,21.9,7,29.74,10.0,West,9.2,16.1,N/A,,Clear,270,2012-06-30 18:53:00
1:53 PM,99.0,17.1,5,29.72,10.0,WNW,15.0,24.2,N/A,,Clear,290,2012-06-30 19:53:00
2:53 PM,99.0,16.0,5,29.70,10.0,Variable,4.6,-,N/A,,Clear,0,2012-06-30 20:53:00
3:53 PM,100.0,14.0,4,29.68,10.0,South,4.6,-,N/A,,Clear,170,2012-06-30 21:53:00
4:53 PM,100.0,10.0,4,29.66,10.0,SW,12.7,18.4,N/A,,Clear,220,2012-06-30 22:53:00
5:53 PM,100.0,3.0,4,29.64,10.0,SSW,8.1,-,N/A,,Clear,210,2012-06-30 23:53:00
6:53 PM,100.0,3.0,4,29.63,10.0,West,10.4,-,N/A,,Clear,260,2012-07-01 00:53:00
7:53 PM,98.1,-0.9,4,29.62,10.0,SW,5.8,-,N/A,,Clear,230,2012-07-01 01:53:00
8:53 PM,89.1,1.9,4,29.62,10.0,West,4.6,-,N/A,,Clear,260,2012-07-01 02:53:00
9:53 PM,84.0,8.1,6,29.64,10.0,WSW,6.9,-,N/A,,Clear,240,2012-07-01 03:53:00
10:53 PM,82.9,10.9,7,29.64,10.0,SW,5.8,-,N/A,,Clear,220,2012-07-01 04:53:00
11:53 PM,77.0,9.0,7,29.64,10.0,Calm,Calm,-,N/A,,Clear,0,2012-07-01 05:53:00